Impacts METAR Board INFO
IDs:

KDTW - Detroit Metro/Wayne, MI, US

Updated at: 0328 UTC 22 Nov 2017
Potential Impact None Slight Moderate High
Time21/15Z 21/16Z 21/17Z 21/18Z 21/19Z 21/20Z 21/21Z 21/22Z 21/23Z 22/00Z 22/01Z 22/02Z 22/03Z
VIS10 10 10 10 10 10 10 10 10 7 10 10 10
CIG230 240 240 240 220 120 45 35 35 14 30 45 50
CoverBKNBKNBKNBKNOVCOVCOVCOVCOVCOVCOVCOVCOVC
FltCatVFRVFRVFRVFRVFRVFRVFRVFRVFRMVFRMVFRVFRVFR
WX---------------RA-RA-RA------
WDir220230230240230230240280240260260290300
WSpd17 19 19 18 14 13 13 11 13 16 8 11 13
WGst29 24 27 26 -- -- -- 18 21 -- -- -- 19
Raw hourly METARs
KDTW 211453Z 22017G29KT 10SM SCT150 BKN230 07/M02 A2974 RMK AO2 PK WND 20030/1423 SLP073 T00671017 52001
KDTW 211553Z 23019G24KT 10SM FEW150 BKN240 08/M01 A2975 RMK AO2 PK WND 22031/1540 SLP075 T00831011
KDTW 211653Z 23019G27KT 10SM FEW150 BKN240 10/M01 A2974 RMK AO2 PK WND 23031/1640 SLP073 T01001006
KDTW 211753Z 24018G26KT 10SM SCT160 BKN240 10/00 A2975 RMK AO2 PK WND 23028/1720 SLP077 T01000000 10106 20044 53005
KDTW 211853Z 23014KT 10SM SCT140 OVC220 09/00 A2976 RMK AO2 PK WND 23026/1826 SLP080 T00940000
KDTW 211953Z 23013KT 10SM FEW050 BKN120 OVC220 09/01 A2978 RMK AO2 SLP086 T00940006
KDTW 212053Z 24013KT 10SM BKN045 OVC110 09/01 A2981 RMK AO2 SLP098 T00940006 53021
KDTW 212153Z 28011G18KT 10SM -RA BKN035 OVC045 07/03 A2985 RMK AO2 RAB20 SLP110 P0000 T00720033
KDTW 212253Z 24013G21KT 10SM -RA OVC035 06/03 A2989 RMK AO2 SLP125 P0000 T00610033
KDTW 220000Z 26016KT 7SM -RA BKN014 OVC025 04/02 A2992 RMK AO2 P0000 T00440022
KDTW 220053Z 26008KT 10SM SCT015 OVC030 04/03 A2994 RMK AO2 RAE40 SLP144 P0002 T00390028
KDTW 220153Z 29011KT 10SM SCT030 OVC045 04/01 A2996 RMK AO2 SLP150 T00390006
KDTW 220253Z 30013G19KT 10SM OVC050 03/M02 A2997 RMK AO2 SLP154 60002 T00281017 51018